sensor_id;sensor_type;location;lat;lon;timestamp;P1;durP1;ratioP1;P2;durP2;ratioP2
38851;SDS011;24605;50.092;9.182;2022-08-25T00:01:55;8.27;;;4.78;;
38851;SDS011;24605;50.092;9.182;2022-08-25T00:04:24;8.52;;;5.63;;
38851;SDS011;24605;50.092;9.182;2022-08-25T00:06:51;10.35;;;5.72;;
38851;SDS011;24605;50.092;9.182;2022-08-25T00:09:20;8.30;;;5.50;;
38851;SDS011;24605;50.092;9.182;2022-08-25T00:11:48;12.48;;;5.70;;
38851;SDS011;24605;50.092;9.182;2022-08-25T00:14:17;9.80;;;5.55;;
38851;SDS011;24605;50.092;9.182;2022-08-25T00:16:46;9.88;;;5.20;;
38851;SDS011;24605;50.092;9.182;2022-08-25T00:19:14;7.55;;;5.28;;
38851;SDS011;24605;50.092;9.182;2022-08-25T00:21:42;8.48;;;5.75;;
38851;SDS011;24605;50.092;9.182;2022-08-25T00:24:10;10.10;;;5.95;;
38851;SDS011;24605;50.092;9.182;2022-08-25T00:26:39;7.85;;;5.80;;
38851;SDS011;24605;50.092;9.182;2022-08-25T00:29:08;10.25;;;6.32;;
38851;SDS011;24605;50.092;9.182;2022-08-25T00:31:36;9.18;;;6.20;;
38851;SDS011;24605;50.092;9.182;2022-08-25T00:34:03;13.32;;;6.35;;
38851;SDS011;24605;50.092;9.182;2022-08-25T00:36:31;10.75;;;6.45;;
38851;SDS011;24605;50.092;9.182;2022-08-25T00:38:58;9.18;;;6.30;;
38851;SDS011;24605;50.092;9.182;2022-08-25T00:41:25;9.38;;;6.35;;
38851;SDS011;24605;50.092;9.182;2022-08-25T00:43:53;9.55;;;6.30;;
38851;SDS011;24605;50.092;9.182;2022-08-25T00:46:22;9.68;;;7.07;;
38851;SDS011;24605;50.092;9.182;2022-08-25T00:48:53;8.63;;;6.45;;
38851;SDS011;24605;50.092;9.182;2022-08-25T00:51:24;10.07;;;6.53;;
38851;SDS011;24605;50.092;9.182;2022-08-25T00:53:55;10.82;;;7.00;;
38851;SDS011;24605;50.092;9.182;2022-08-25T00:56:23;12.40;;;7.40;;
38851;SDS011;24605;50.092;9.182;2022-08-25T00:58:50;10.30;;;6.40;;
38851;SDS011;24605;50.092;9.182;2022-08-25T01:01:17;9.88;;;6.95;;
38851;SDS011;24605;50.092;9.182;2022-08-25T01:03:43;10.48;;;7.18;;
38851;SDS011;24605;50.092;9.182;2022-08-25T01:06:11;12.20;;;7.55;;
38851;SDS011;24605;50.092;9.182;2022-08-25T01:08:40;10.68;;;6.95;;
38851;SDS011;24605;50.092;9.182;2022-08-25T01:11:08;10.73;;;7.68;;
38851;SDS011;24605;50.092;9.182;2022-08-25T01:13:36;11.43;;;7.38;;
38851;SDS011;24605;50.092;9.182;2022-08-25T01:16:06;13.45;;;7.78;;
38851;SDS011;24605;50.092;9.182;2022-08-25T01:18:43;10.15;;;7.32;;
38851;SDS011;24605;50.092;9.182;2022-08-25T01:21:16;11.43;;;7.63;;
38851;SDS011;24605;50.092;9.182;2022-08-25T01:23:43;13.68;;;7.60;;
38851;SDS011;24605;50.092;9.182;2022-08-25T01:26:12;11.43;;;7.57;;
38851;SDS011;24605;50.092;9.182;2022-08-25T01:28:41;11.90;;;7.88;;
38851;SDS011;24605;50.092;9.182;2022-08-25T01:31:23;12.25;;;7.40;;
38851;SDS011;24605;50.092;9.182;2022-08-25T01:33:49;14.07;;;7.15;;
38851;SDS011;24605;50.092;9.182;2022-08-25T01:36:17;12.23;;;7.60;;
38851;SDS011;24605;50.092;9.182;2022-08-25T01:38:44;12.82;;;8.30;;
38851;SDS011;24605;50.092;9.182;2022-08-25T01:41:11;11.23;;;7.90;;
38851;SDS011;24605;50.092;9.182;2022-08-25T01:43:37;11.15;;;7.68;;
38851;SDS011;24605;50.092;9.182;2022-08-25T01:46:04;11.05;;;7.70;;
38851;SDS011;24605;50.092;9.182;2022-08-25T01:48:30;11.48;;;8.07;;
38851;SDS011;24605;50.092;9.182;2022-08-25T01:50:57;11.90;;;7.85;;
38851;SDS011;24605;50.092;9.182;2022-08-25T01:53:27;12.50;;;7.70;;
38851;SDS011;24605;50.092;9.182;2022-08-25T01:55:55;15.63;;;8.15;;
38851;SDS011;24605;50.092;9.182;2022-08-25T01:58:28;15.52;;;8.07;;
38851;SDS011;24605;50.092;9.182;2022-08-25T02:00:58;11.35;;;7.95;;
38851;SDS011;24605;50.092;9.182;2022-08-25T02:03:26;12.20;;;7.85;;
38851;SDS011;24605;50.092;9.182;2022-08-25T02:05:54;10.60;;;8.23;;
38851;SDS011;24605;50.092;9.182;2022-08-25T02:08:22;11.45;;;7.55;;
38851;SDS011;24605;50.092;9.182;2022-08-25T02:10:50;10.40;;;7.65;;
38851;SDS011;24605;50.092;9.182;2022-08-25T02:13:19;10.90;;;8.30;;
38851;SDS011;24605;50.092;9.182;2022-08-25T02:15:47;11.88;;;7.57;;
38851;SDS011;24605;50.092;9.182;2022-08-25T02:18:17;12.60;;;7.50;;
38851;SDS011;24605;50.092;9.182;2022-08-25T02:20:45;13.70;;;7.88;;
38851;SDS011;24605;50.092;9.182;2022-08-25T02:23:11;11.32;;;7.63;;
38851;SDS011;24605;50.092;9.182;2022-08-25T02:25:38;12.18;;;8.15;;
38851;SDS011;24605;50.092;9.182;2022-08-25T02:28:07;12.95;;;7.35;;
38851;SDS011;24605;50.092;9.182;2022-08-25T02:30:34;12.68;;;8.00;;
38851;SDS011;24605;50.092;9.182;2022-08-25T02:33:01;10.55;;;7.35;;
38851;SDS011;24605;50.092;9.182;2022-08-25T02:35:28;10.70;;;7.97;;
38851;SDS011;24605;50.092;9.182;2022-08-25T02:37:56;10.70;;;7.65;;
38851;SDS011;24605;50.092;9.182;2022-08-25T02:40:23;14.15;;;7.80;;
38851;SDS011;24605;50.092;9.182;2022-08-25T02:42:49;14.18;;;8.40;;
38851;SDS011;24605;50.092;9.182;2022-08-25T02:45:18;11.48;;;7.55;;
38851;SDS011;24605;50.092;9.182;2022-08-25T02:47:44;11.65;;;7.93;;
38851;SDS011;24605;50.092;9.182;2022-08-25T02:50:11;10.90;;;7.43;;
38851;SDS011;24605;50.092;9.182;2022-08-25T02:52:38;14.52;;;7.90;;
38851;SDS011;24605;50.092;9.182;2022-08-25T02:55:07;13.98;;;8.50;;
38851;SDS011;24605;50.092;9.182;2022-08-25T02:57:38;11.98;;;7.70;;
38851;SDS011;24605;50.092;9.182;2022-08-25T03:00:05;11.30;;;8.32;;
38851;SDS011;24605;50.092;9.182;2022-08-25T03:02:33;11.50;;;8.43;;
38851;SDS011;24605;50.092;9.182;2022-08-25T03:05:00;12.05;;;8.30;;
38851;SDS011;24605;50.092;9.182;2022-08-25T03:07:27;12.32;;;8.00;;
38851;SDS011;24605;50.092;9.182;2022-08-25T03:09:54;10.88;;;8.15;;
38851;SDS011;24605;50.092;9.182;2022-08-25T03:12:20;13.88;;;8.55;;
38851;SDS011;24605;50.092;9.182;2022-08-25T03:14:47;10.50;;;7.75;;
38851;SDS011;24605;50.092;9.182;2022-08-25T03:17:13;12.70;;;8.50;;
38851;SDS011;24605;50.092;9.182;2022-08-25T03:19:41;11.60;;;7.88;;
38851;SDS011;24605;50.092;9.182;2022-08-25T03:22:08;10.75;;;7.97;;
38851;SDS011;24605;50.092;9.182;2022-08-25T03:24:34;11.63;;;8.90;;
38851;SDS011;24605;50.092;9.182;2022-08-25T03:27:01;12.63;;;8.43;;
38851;SDS011;24605;50.092;9.182;2022-08-25T03:29:27;14.88;;;8.45;;
38851;SDS011;24605;50.092;9.182;2022-08-25T03:31:57;11.82;;;8.57;;
38851;SDS011;24605;50.092;9.182;2022-08-25T03:34:24;11.60;;;8.55;;
38851;SDS011;24605;50.092;9.182;2022-08-25T03:36:56;10.70;;;8.10;;
38851;SDS011;24605;50.092;9.182;2022-08-25T03:39:24;14.57;;;9.00;;
38851;SDS011;24605;50.092;9.182;2022-08-25T03:41:51;15.82;;;8.93;;
38851;SDS011;24605;50.092;9.182;2022-08-25T03:44:19;11.50;;;8.40;;
38851;SDS011;24605;50.092;9.182;2022-08-25T03:46:47;14.45;;;8.95;;
38851;SDS011;24605;50.092;9.182;2022-08-25T03:49:17;11.80;;;8.73;;
38851;SDS011;24605;50.092;9.182;2022-08-25T03:51:47;10.75;;;8.40;;
38851;SDS011;24605;50.092;9.182;2022-08-25T03:54:17;13.30;;;8.77;;
38851;SDS011;24605;50.092;9.182;2022-08-25T03:56:46;13.43;;;8.57;;
38851;SDS011;24605;50.092;9.182;2022-08-25T03:59:12;13.52;;;9.25;;
38851;SDS011;24605;50.092;9.182;2022-08-25T04:01:40;13.02;;;8.73;;
38851;SDS011;24605;50.092;9.182;2022-08-25T04:04:09;15.55;;;9.85;;
38851;SDS011;24605;50.092;9.182;2022-08-25T04:06:36;15.07;;;9.30;;
38851;SDS011;24605;50.092;9.182;2022-08-25T04:09:03;13.93;;;8.90;;
38851;SDS011;24605;50.092;9.182;2022-08-25T04:11:32;11.90;;;9.18;;
38851;SDS011;24605;50.092;9.182;2022-08-25T04:13:59;12.45;;;9.07;;
38851;SDS011;24605;50.092;9.182;2022-08-25T04:16:27;15.93;;;9.55;;
38851;SDS011;24605;50.092;9.182;2022-08-25T04:18:57;16.20;;;9.55;;
38851;SDS011;24605;50.092;9.182;2022-08-25T04:21:25;13.85;;;9.98;;
38851;SDS011;24605;50.092;9.182;2022-08-25T04:23:52;14.30;;;9.35;;
38851;SDS011;24605;50.092;9.182;2022-08-25T04:26:21;14.73;;;9.57;;
38851;SDS011;24605;50.092;9.182;2022-08-25T04:28:51;15.05;;;9.82;;
38851;SDS011;24605;50.092;9.182;2022-08-25T04:31:19;13.32;;;9.30;;
38851;SDS011;24605;50.092;9.182;2022-08-25T04:33:46;14.60;;;9.43;;
38851;SDS011;24605;50.092;9.182;2022-08-25T04:36:14;15.70;;;9.15;;
38851;SDS011;24605;50.092;9.182;2022-08-25T04:38:42;17.08;;;9.73;;
38851;SDS011;24605;50.092;9.182;2022-08-25T04:41:10;14.80;;;9.80;;
38851;SDS011;24605;50.092;9.182;2022-08-25T04:43:39;15.20;;;9.77;;
38851;SDS011;24605;50.092;9.182;2022-08-25T04:46:10;11.85;;;8.88;;
38851;SDS011;24605;50.092;9.182;2022-08-25T04:48:38;15.75;;;10.70;;
38851;SDS011;24605;50.092;9.182;2022-08-25T04:51:05;13.95;;;9.98;;
38851;SDS011;24605;50.092;9.182;2022-08-25T04:53:33;13.30;;;9.77;;
38851;SDS011;24605;50.092;9.182;2022-08-25T04:56:03;14.75;;;9.88;;
38851;SDS011;24605;50.092;9.182;2022-08-25T04:58:31;13.48;;;9.75;;
38851;SDS011;24605;50.092;9.182;2022-08-25T05:01:00;13.43;;;9.52;;
38851;SDS011;24605;50.092;9.182;2022-08-25T05:03:29;16.50;;;10.10;;
38851;SDS011;24605;50.092;9.182;2022-08-25T05:05:56;13.80;;;9.80;;
38851;SDS011;24605;50.092;9.182;2022-08-25T05:08:22;17.85;;;10.30;;
38851;SDS011;24605;50.092;9.182;2022-08-25T05:10:49;13.07;;;9.48;;
38851;SDS011;24605;50.092;9.182;2022-08-25T05:13:18;14.15;;;10.68;;
38851;SDS011;24605;50.092;9.182;2022-08-25T05:15:50;12.80;;;10.00;;
38851;SDS011;24605;50.092;9.182;2022-08-25T05:18:17;14.10;;;10.07;;
38851;SDS011;24605;50.092;9.182;2022-08-25T05:20:46;14.32;;;10.55;;
38851;SDS011;24605;50.092;9.182;2022-08-25T05:23:13;18.77;;;10.57;;
38851;SDS011;24605;50.092;9.182;2022-08-25T05:25:39;14.32;;;9.77;;
38851;SDS011;24605;50.092;9.182;2022-08-25T05:28:07;17.42;;;10.52;;
38851;SDS011;24605;50.092;9.182;2022-08-25T05:30:36;12.68;;;10.15;;
38851;SDS011;24605;50.092;9.182;2022-08-25T05:33:03;15.13;;;10.00;;
38851;SDS011;24605;50.092;9.182;2022-08-25T05:35:30;13.98;;;9.95;;
38851;SDS011;24605;50.092;9.182;2022-08-25T05:37:58;14.50;;;9.60;;
38851;SDS011;24605;50.092;9.182;2022-08-25T05:40:25;14.50;;;10.75;;
38851;SDS011;24605;50.092;9.182;2022-08-25T05:42:52;16.02;;;10.00;;
38851;SDS011;24605;50.092;9.182;2022-08-25T05:45:19;13.70;;;10.80;;
38851;SDS011;24605;50.092;9.182;2022-08-25T05:47:46;14.77;;;10.13;;
38851;SDS011;24605;50.092;9.182;2022-08-25T05:50:13;13.50;;;9.95;;
38851;SDS011;24605;50.092;9.182;2022-08-25T05:52:39;12.63;;;9.52;;
38851;SDS011;24605;50.092;9.182;2022-08-25T05:55:08;16.98;;;11.02;;
38851;SDS011;24605;50.092;9.182;2022-08-25T05:57:34;15.48;;;9.77;;
38851;SDS011;24605;50.092;9.182;2022-08-25T06:00:01;12.85;;;9.30;;
38851;SDS011;24605;50.092;9.182;2022-08-25T06:02:29;13.48;;;9.65;;
38851;SDS011;24605;50.092;9.182;2022-08-25T06:05:11;13.60;;;9.80;;
38851;SDS011;24605;50.092;9.182;2022-08-25T06:07:41;16.75;;;10.00;;
38851;SDS011;24605;50.092;9.182;2022-08-25T06:10:09;12.90;;;9.45;;
38851;SDS011;24605;50.092;9.182;2022-08-25T06:12:37;15.27;;;10.00;;
38851;SDS011;24605;50.092;9.182;2022-08-25T06:15:06;14.70;;;9.95;;
38851;SDS011;24605;50.092;9.182;2022-08-25T06:17:33;14.27;;;9.50;;
38851;SDS011;24605;50.092;9.182;2022-08-25T06:20:04;12.02;;;9.75;;
38851;SDS011;24605;50.092;9.182;2022-08-25T06:22:32;10.80;;;9.20;;
38851;SDS011;24605;50.092;9.182;2022-08-25T06:24:59;13.38;;;9.50;;
38851;SDS011;24605;50.092;9.182;2022-08-25T06:27:26;14.05;;;10.27;;
38851;SDS011;24605;50.092;9.182;2022-08-25T06:29:53;13.73;;;8.85;;
38851;SDS011;24605;50.092;9.182;2022-08-25T06:32:19;13.80;;;9.93;;
38851;SDS011;24605;50.092;9.182;2022-08-25T06:34:46;15.45;;;9.70;;
38851;SDS011;24605;50.092;9.182;2022-08-25T06:37:12;14.30;;;9.40;;
38851;SDS011;24605;50.092;9.182;2022-08-25T06:39:39;11.77;;;9.18;;
38851;SDS011;24605;50.092;9.182;2022-08-25T06:42:06;13.75;;;9.43;;
38851;SDS011;24605;50.092;9.182;2022-08-25T06:44:34;13.90;;;9.82;;
38851;SDS011;24605;50.092;9.182;2022-08-25T06:47:00;13.32;;;9.60;;
38851;SDS011;24605;50.092;9.182;2022-08-25T06:49:27;15.82;;;9.98;;
38851;SDS011;24605;50.092;9.182;2022-08-25T06:51:53;12.15;;;9.48;;
38851;SDS011;24605;50.092;9.182;2022-08-25T06:54:20;13.98;;;9.00;;
38851;SDS011;24605;50.092;9.182;2022-08-25T06:56:46;12.45;;;9.23;;
38851;SDS011;24605;50.092;9.182;2022-08-25T06:59:12;12.10;;;9.05;;
38851;SDS011;24605;50.092;9.182;2022-08-25T07:01:40;11.70;;;8.20;;
38851;SDS011;24605;50.092;9.182;2022-08-25T07:04:07;14.15;;;9.65;;
38851;SDS011;24605;50.092;9.182;2022-08-25T07:06:34;16.77;;;9.75;;
38851;SDS011;24605;50.092;9.182;2022-08-25T07:09:02;14.75;;;9.15;;
38851;SDS011;24605;50.092;9.182;2022-08-25T07:11:30;12.35;;;9.32;;
38851;SDS011;24605;50.092;9.182;2022-08-25T07:13:58;12.50;;;9.43;;
38851;SDS011;24605;50.092;9.182;2022-08-25T07:16:25;11.93;;;8.45;;
38851;SDS011;24605;50.092;9.182;2022-08-25T07:18:53;11.88;;;8.43;;
38851;SDS011;24605;50.092;9.182;2022-08-25T07:21:20;13.68;;;8.75;;
38851;SDS011;24605;50.092;9.182;2022-08-25T07:23:47;15.40;;;9.38;;
38851;SDS011;24605;50.092;9.182;2022-08-25T07:26:14;11.95;;;8.43;;
38851;SDS011;24605;50.092;9.182;2022-08-25T07:28:44;13.43;;;8.32;;
38851;SDS011;24605;50.092;9.182;2022-08-25T07:31:11;13.55;;;8.85;;
38851;SDS011;24605;50.092;9.182;2022-08-25T07:33:38;11.95;;;9.07;;
38851;SDS011;24605;50.092;9.182;2022-08-25T07:36:26;12.18;;;8.60;;
38851;SDS011;24605;50.092;9.182;2022-08-25T07:38:52;12.70;;;8.63;;
38851;SDS011;24605;50.092;9.182;2022-08-25T07:41:19;12.07;;;8.55;;
38851;SDS011;24605;50.092;9.182;2022-08-25T07:43:45;11.27;;;8.38;;
38851;SDS011;24605;50.092;9.182;2022-08-25T07:46:13;10.38;;;7.30;;
38851;SDS011;24605;50.092;9.182;2022-08-25T07:48:39;15.68;;;7.40;;
38851;SDS011;24605;50.092;9.182;2022-08-25T07:51:07;10.43;;;7.85;;
38851;SDS011;24605;50.092;9.182;2022-08-25T07:53:36;9.05;;;7.28;;
38851;SDS011;24605;50.092;9.182;2022-08-25T07:56:07;10.93;;;7.75;;
38851;SDS011;24605;50.092;9.182;2022-08-25T07:58:35;11.40;;;7.65;;
38851;SDS011;24605;50.092;9.182;2022-08-25T08:01:02;10.55;;;7.20;;
38851;SDS011;24605;50.092;9.182;2022-08-25T08:03:29;9.90;;;6.88;;
38851;SDS011;24605;50.092;9.182;2022-08-25T08:05:55;10.80;;;7.22;;
38851;SDS011;24605;50.092;9.182;2022-08-25T08:08:22;10.48;;;7.50;;
38851;SDS011;24605;50.092;9.182;2022-08-25T08:10:50;9.68;;;7.13;;
38851;SDS011;24605;50.092;9.182;2022-08-25T08:13:16;9.77;;;6.85;;
38851;SDS011;24605;50.092;9.182;2022-08-25T08:15:43;9.02;;;6.93;;
38851;SDS011;24605;50.092;9.182;2022-08-25T08:18:11;8.77;;;6.97;;
38851;SDS011;24605;50.092;9.182;2022-08-25T08:20:38;9.63;;;7.03;;
38851;SDS011;24605;50.092;9.182;2022-08-25T08:23:04;9.68;;;6.25;;
38851;SDS011;24605;50.092;9.182;2022-08-25T08:25:31;10.15;;;6.47;;
38851;SDS011;24605;50.092;9.182;2022-08-25T08:27:59;9.05;;;6.38;;
38851;SDS011;24605;50.092;9.182;2022-08-25T08:30:25;9.27;;;6.53;;
38851;SDS011;24605;50.092;9.182;2022-08-25T08:32:52;10.02;;;6.90;;
38851;SDS011;24605;50.092;9.182;2022-08-25T08:35:19;10.05;;;6.45;;
38851;SDS011;24605;50.092;9.182;2022-08-25T08:37:45;8.82;;;6.57;;
38851;SDS011;24605;50.092;9.182;2022-08-25T08:40:13;7.95;;;6.13;;
38851;SDS011;24605;50.092;9.182;2022-08-25T08:42:46;8.93;;;5.70;;
38851;SDS011;24605;50.092;9.182;2022-08-25T08:45:25;16.80;;;6.45;;
38851;SDS011;24605;50.092;9.182;2022-08-25T08:48:02;10.68;;;6.55;;
38851;SDS011;24605;50.092;9.182;2022-08-25T08:50:42;9.33;;;6.10;;
38851;SDS011;24605;50.092;9.182;2022-08-25T08:53:22;7.45;;;6.18;;
38851;SDS011;24605;50.092;9.182;2022-08-25T08:55:55;7.72;;;6.15;;
38851;SDS011;24605;50.092;9.182;2022-08-25T08:58:24;8.52;;;5.68;;
38851;SDS011;24605;50.092;9.182;2022-08-25T09:00:56;9.48;;;6.25;;
38851;SDS011;24605;50.092;9.182;2022-08-25T09:03:28;9.27;;;6.22;;
38851;SDS011;24605;50.092;9.182;2022-08-25T09:06:01;10.77;;;5.65;;
38851;SDS011;24605;50.092;9.182;2022-08-25T09:08:30;7.88;;;5.53;;
38851;SDS011;24605;50.092;9.182;2022-08-25T09:11:00;11.18;;;6.18;;
38851;SDS011;24605;50.092;9.182;2022-08-25T09:13:35;10.32;;;5.65;;
38851;SDS011;24605;50.092;9.182;2022-08-25T09:16:11;8.05;;;5.40;;
38851;SDS011;24605;50.092;9.182;2022-08-25T09:19:06;7.72;;;5.28;;
38851;SDS011;24605;50.092;9.182;2022-08-25T09:21:42;8.48;;;5.68;;
38851;SDS011;24605;50.092;9.182;2022-08-25T09:24:22;10.20;;;5.35;;
38851;SDS011;24605;50.092;9.182;2022-08-25T09:27:00;10.93;;;5.32;;
38851;SDS011;24605;50.092;9.182;2022-08-25T09:29:39;8.07;;;5.25;;
38851;SDS011;24605;50.092;9.182;2022-08-25T09:32:16;9.40;;;5.95;;
38851;SDS011;24605;50.092;9.182;2022-08-25T09:34:43;7.68;;;5.22;;
38851;SDS011;24605;50.092;9.182;2022-08-25T09:37:12;9.52;;;5.55;;
38851;SDS011;24605;50.092;9.182;2022-08-25T09:39:39;7.57;;;5.45;;
38851;SDS011;24605;50.092;9.182;2022-08-25T09:42:06;8.07;;;5.38;;
38851;SDS011;24605;50.092;9.182;2022-08-25T09:44:33;7.78;;;5.35;;
38851;SDS011;24605;50.092;9.182;2022-08-25T09:47:12;7.95;;;5.75;;
38851;SDS011;24605;50.092;9.182;2022-08-25T09:49:47;6.82;;;5.18;;
38851;SDS011;24605;50.092;9.182;2022-08-25T09:52:25;8.18;;;5.60;;
38851;SDS011;24605;50.092;9.182;2022-08-25T09:54:57;9.13;;;5.72;;
38851;SDS011;24605;50.092;9.182;2022-08-25T09:57:27;10.82;;;5.35;;
38851;SDS011;24605;50.092;9.182;2022-08-25T09:59:56;7.13;;;4.97;;
38851;SDS011;24605;50.092;9.182;2022-08-25T10:02:35;6.88;;;5.18;;
38851;SDS011;24605;50.092;9.182;2022-08-25T10:05:04;9.15;;;5.55;;
38851;SDS011;24605;50.092;9.182;2022-08-25T10:07:47;6.75;;;4.90;;
38851;SDS011;24605;50.092;9.182;2022-08-25T10:10:21;7.75;;;4.57;;
38851;SDS011;24605;50.092;9.182;2022-08-25T10:12:52;7.57;;;4.35;;
38851;SDS011;24605;50.092;9.182;2022-08-25T10:15:23;7.68;;;4.68;;
38851;SDS011;24605;50.092;9.182;2022-08-25T10:17:53;6.47;;;4.70;;
38851;SDS011;24605;50.092;9.182;2022-08-25T10:20:21;8.07;;;5.05;;
38851;SDS011;24605;50.092;9.182;2022-08-25T10:22:49;5.20;;;4.30;;
38851;SDS011;24605;50.092;9.182;2022-08-25T10:25:20;6.07;;;3.92;;
38851;SDS011;24605;50.092;9.182;2022-08-25T10:27:53;6.95;;;4.28;;
38851;SDS011;24605;50.092;9.182;2022-08-25T10:30:33;7.93;;;4.72;;
38851;SDS011;24605;50.092;9.182;2022-08-25T10:33:11;8.38;;;5.00;;
38851;SDS011;24605;50.092;9.182;2022-08-25T10:35:47;7.68;;;5.00;;
38851;SDS011;24605;50.092;9.182;2022-08-25T10:38:27;6.70;;;4.28;;
38851;SDS011;24605;50.092;9.182;2022-08-25T10:41:04;7.47;;;4.78;;
38851;SDS011;24605;50.092;9.182;2022-08-25T10:43:41;6.90;;;4.90;;
38851;SDS011;24605;50.092;9.182;2022-08-25T10:46:15;6.82;;;4.85;;
38851;SDS011;24605;50.092;9.182;2022-08-25T10:48:57;6.93;;;5.07;;
38851;SDS011;24605;50.092;9.182;2022-08-25T10:51:37;6.82;;;4.78;;
38851;SDS011;24605;50.092;9.182;2022-08-25T10:54:18;7.40;;;4.97;;
38851;SDS011;24605;50.092;9.182;2022-08-25T10:56:56;8.65;;;5.00;;
38851;SDS011;24605;50.092;9.182;2022-08-25T10:59:34;7.88;;;4.53;;
38851;SDS011;24605;50.092;9.182;2022-08-25T11:02:32;7.78;;;4.97;;
38851;SDS011;24605;50.092;9.182;2022-08-25T11:05:11;7.32;;;4.60;;
38851;SDS011;24605;50.092;9.182;2022-08-25T11:07:43;6.17;;;4.80;;
38851;SDS011;24605;50.092;9.182;2022-08-25T11:10:14;7.47;;;5.03;;
38851;SDS011;24605;50.092;9.182;2022-08-25T11:12:45;8.23;;;4.38;;
38851;SDS011;24605;50.092;9.182;2022-08-25T11:15:19;7.05;;;4.13;;
38851;SDS011;24605;50.092;9.182;2022-08-25T11:17:50;6.40;;;4.10;;
38851;SDS011;24605;50.092;9.182;2022-08-25T11:20:25;6.15;;;3.50;;
38851;SDS011;24605;50.092;9.182;2022-08-25T11:23:01;5.03;;;3.60;;
38851;SDS011;24605;50.092;9.182;2022-08-25T11:25:36;5.60;;;3.70;;
38851;SDS011;24605;50.092;9.182;2022-08-25T11:28:07;4.88;;;3.70;;
38851;SDS011;24605;50.092;9.182;2022-08-25T11:30:38;6.00;;;4.07;;
38851;SDS011;24605;50.092;9.182;2022-08-25T11:33:05;6.25;;;3.90;;
38851;SDS011;24605;50.092;9.182;2022-08-25T11:35:38;5.28;;;3.80;;
38851;SDS011;24605;50.092;9.182;2022-08-25T11:38:12;5.75;;;3.80;;
38851;SDS011;24605;50.092;9.182;2022-08-25T11:40:49;5.70;;;3.80;;
38851;SDS011;24605;50.092;9.182;2022-08-25T11:43:33;5.97;;;3.78;;
38851;SDS011;24605;50.092;9.182;2022-08-25T11:46:16;5.90;;;4.00;;
38851;SDS011;24605;50.092;9.182;2022-08-25T11:48:54;6.45;;;3.85;;
38851;SDS011;24605;50.092;9.182;2022-08-25T11:51:30;8.90;;;3.85;;
38851;SDS011;24605;50.092;9.182;2022-08-25T11:54:17;7.50;;;4.15;;
38851;SDS011;24605;50.092;9.182;2022-08-25T11:56:50;8.27;;;4.40;;
38851;SDS011;24605;50.092;9.182;2022-08-25T12:02:36;7.30;;;3.90;;
38851;SDS011;24605;50.092;9.182;2022-08-25T12:05:05;7.38;;;3.78;;
38851;SDS011;24605;50.092;9.182;2022-08-25T12:10:55;7.07;;;4.43;;
38851;SDS011;24605;50.092;9.182;2022-08-25T12:13:40;5.78;;;4.00;;
38851;SDS011;24605;50.092;9.182;2022-08-25T12:19:22;6.38;;;3.47;;
38851;SDS011;24605;50.092;9.182;2022-08-25T12:28:10;7.43;;;3.92;;
38851;SDS011;24605;50.092;9.182;2022-08-25T12:30:51;5.95;;;3.83;;
38851;SDS011;24605;50.092;9.182;2022-08-25T12:36:01;5.45;;;4.00;;
38851;SDS011;24605;50.092;9.182;2022-08-25T12:38:31;5.63;;;3.80;;
38851;SDS011;24605;50.092;9.182;2022-08-25T12:41:06;6.35;;;3.85;;
38851;SDS011;24605;50.092;9.182;2022-08-25T12:43:35;6.60;;;4.18;;
38851;SDS011;24605;50.092;9.182;2022-08-25T12:49:01;5.38;;;4.18;;
38851;SDS011;24605;50.092;9.182;2022-08-25T12:51:45;8.45;;;5.88;;
38851;SDS011;24605;50.092;9.182;2022-08-25T12:54:19;9.68;;;6.72;;
38851;SDS011;24605;50.092;9.182;2022-08-25T12:56:52;9.30;;;6.25;;
38851;SDS011;24605;50.092;9.182;2022-08-25T12:59:22;7.82;;;5.93;;
38851;SDS011;24605;50.092;9.182;2022-08-25T13:02:11;7.60;;;5.50;;
38851;SDS011;24605;50.092;9.182;2022-08-25T13:05:02;7.70;;;5.15;;
38851;SDS011;24605;50.092;9.182;2022-08-25T13:07:46;8.63;;;5.75;;
38851;SDS011;24605;50.092;9.182;2022-08-25T13:10:30;12.07;;;5.18;;
38851;SDS011;24605;50.092;9.182;2022-08-25T13:13:09;6.07;;;4.55;;
38851;SDS011;24605;50.092;9.182;2022-08-25T13:15:42;6.80;;;4.88;;
38851;SDS011;24605;50.092;9.182;2022-08-25T13:18:15;6.78;;;4.85;;
38851;SDS011;24605;50.092;9.182;2022-08-25T13:20:44;8.18;;;5.22;;
38851;SDS011;24605;50.092;9.182;2022-08-25T13:23:15;5.95;;;4.72;;
38851;SDS011;24605;50.092;9.182;2022-08-25T13:25:46;7.65;;;4.93;;
38851;SDS011;24605;50.092;9.182;2022-08-25T13:28:21;7.60;;;4.40;;
38851;SDS011;24605;50.092;9.182;2022-08-25T13:30:55;7.43;;;4.47;;
38851;SDS011;24605;50.092;9.182;2022-08-25T13:33:23;6.32;;;3.38;;
38851;SDS011;24605;50.092;9.182;2022-08-25T13:35:51;6.32;;;3.72;;
38851;SDS011;24605;50.092;9.182;2022-08-25T13:38:40;5.53;;;3.67;;
38851;SDS011;24605;50.092;9.182;2022-08-25T13:41:07;5.93;;;3.65;;
38851;SDS011;24605;50.092;9.182;2022-08-25T13:43:36;5.22;;;3.33;;
38851;SDS011;24605;50.092;9.182;2022-08-25T13:46:04;5.97;;;3.67;;
38851;SDS011;24605;50.092;9.182;2022-08-25T13:48:32;8.35;;;4.32;;
38851;SDS011;24605;50.092;9.182;2022-08-25T13:51:07;8.70;;;3.72;;
38851;SDS011;24605;50.092;9.182;2022-08-25T13:53:46;6.45;;;3.60;;
38851;SDS011;24605;50.092;9.182;2022-08-25T13:56:20;6.45;;;3.70;;
38851;SDS011;24605;50.092;9.182;2022-08-25T13:58:50;5.45;;;3.63;;
38851;SDS011;24605;50.092;9.182;2022-08-25T14:01:19;5.32;;;3.55;;
38851;SDS011;24605;50.092;9.182;2022-08-25T14:03:48;5.68;;;3.30;;
38851;SDS011;24605;50.092;9.182;2022-08-25T14:06:18;5.45;;;3.70;;
38851;SDS011;24605;50.092;9.182;2022-08-25T14:08:48;6.18;;;3.70;;
38851;SDS011;24605;50.092;9.182;2022-08-25T14:11:31;5.18;;;2.90;;
38851;SDS011;24605;50.092;9.182;2022-08-25T14:14:01;4.97;;;3.20;;
38851;SDS011;24605;50.092;9.182;2022-08-25T14:16:30;4.60;;;3.20;;
38851;SDS011;24605;50.092;9.182;2022-08-25T14:19:01;5.30;;;2.95;;
38851;SDS011;24605;50.092;9.182;2022-08-25T14:21:29;7.40;;;3.00;;
38851;SDS011;24605;50.092;9.182;2022-08-25T14:23:56;6.35;;;3.15;;
38851;SDS011;24605;50.092;9.182;2022-08-25T14:26:23;5.97;;;3.20;;
38851;SDS011;24605;50.092;9.182;2022-08-25T14:28:50;6.10;;;3.25;;
38851;SDS011;24605;50.092;9.182;2022-08-25T14:31:19;5.20;;;3.38;;
38851;SDS011;24605;50.092;9.182;2022-08-25T14:33:50;7.88;;;3.30;;
38851;SDS011;24605;50.092;9.182;2022-08-25T14:36:19;6.03;;;3.45;;
38851;SDS011;24605;50.092;9.182;2022-08-25T14:38:45;5.82;;;3.13;;
38851;SDS011;24605;50.092;9.182;2022-08-25T14:41:11;6.07;;;3.20;;
38851;SDS011;24605;50.092;9.182;2022-08-25T14:43:38;6.97;;;3.30;;
38851;SDS011;24605;50.092;9.182;2022-08-25T14:46:05;5.07;;;2.85;;
38851;SDS011;24605;50.092;9.182;2022-08-25T14:48:38;5.00;;;2.90;;
38851;SDS011;24605;50.092;9.182;2022-08-25T14:51:07;5.30;;;3.00;;
38851;SDS011;24605;50.092;9.182;2022-08-25T14:53:36;6.95;;;2.70;;
38851;SDS011;24605;50.092;9.182;2022-08-25T14:56:03;5.68;;;2.85;;
38851;SDS011;24605;50.092;9.182;2022-08-25T14:58:29;5.20;;;3.10;;
38851;SDS011;24605;50.092;9.182;2022-08-25T15:00:56;5.43;;;2.30;;
38851;SDS011;24605;50.092;9.182;2022-08-25T15:03:25;5.32;;;2.60;;
38851;SDS011;24605;50.092;9.182;2022-08-25T15:05:55;5.05;;;2.83;;
38851;SDS011;24605;50.092;9.182;2022-08-25T15:08:22;6.07;;;2.85;;
38851;SDS011;24605;50.092;9.182;2022-08-25T15:11:06;6.10;;;3.30;;
38851;SDS011;24605;50.092;9.182;2022-08-25T15:13:32;6.50;;;3.30;;
38851;SDS011;24605;50.092;9.182;2022-08-25T15:15:59;5.47;;;3.33;;
38851;SDS011;24605;50.092;9.182;2022-08-25T15:18:26;5.75;;;3.40;;
38851;SDS011;24605;50.092;9.182;2022-08-25T15:20:52;5.30;;;3.20;;